Saipan, Northern Mariana Islands
Current Conditions -  °F | °C
As of 6:54 PM on Thursday 23 Oct 2014 (Local Time) from PGSN Reporting Station
Scattered Clouds Scattered Clouds  
Wind Chill: 83°   Ceiling: Unl
Heat Index: 92°   Visibility: 10mi
Dew Point: 77°   Wind: 9mph
Humidity: 82%   Direction: 100°E
Pressure: 29.83"   Gusts: NA
Location:  15.13°N, 145.7°E
Report Text: PGSN 230854Z 10008KT 10SM SCT017 28/25 A2983 RMK AO2 SLP123 T02830250 53019
Loading
Personal Weather Stations






























Interactive Weather Map
Tropical Storm Tracking
New forecast layout! Learn more

10-Day Weather Forecast

Advertisements
Track Severe Weather on mobile